Time;durP1;ratioP1;P1;durP2;ratioP2;P2;SDS_P1;SDS_P2;PMS_P1;PMS_P2;Temp;Humidity;BMP_temperature;BMP_pressure;BME280_temperature;BME280_humidity;BME280_pressure;Samples;Min_cycle;Max_cycle;Signal;HPM_P1;HPM_P2
2023/09/11 00:00:41;;;;;;;;;;;;;;;15.06;100.00;101203.94;5011965;28;20466;-86
2023/09/11 00:03:06;;;;;;;;;;;;;;;14.92;100.00;101202.88;4994737;28;19917;-87
2023/09/11 00:05:32;;;;;;;;;;;;;;;14.97;100.00;101194.28;4994201;28;19913;-86
2023/09/11 00:07:57;;;;;;;;;;;;;;;14.78;100.00;101184.84;5008372;28;19920;-87
2023/09/11 00:10:23;;;;;;;;;;;;;;;14.81;100.00;101191.72;5024167;28;20884;-87
2023/09/11 00:12:48;;;;;;;;;;;;;;;14.64;100.00;101189.16;5031939;28;19921;-86
2023/09/11 00:15:14;;;;;;;;;;;;;;;14.60;100.00;101187.00;4991298;28;19959;-85
2023/09/11 00:17:39;;;;;;;;;;;;;;;14.61;100.00;101191.34;4997854;28;19913;-86
2023/09/11 00:20:10;;;;;;;;;;;;;;;14.54;100.00;101188.56;5032028;28;20370;-86
2023/09/11 00:22:36;;;;;;;;;;;;;;;14.75;100.00;101195.97;4999001;28;19982;-88
2023/09/11 00:25:01;;;;;;;;;;;;;;;14.57;100.00;101182.81;5000681;28;20638;-86
2023/09/11 00:27:27;;;;;;;;;;;;;;;14.44;100.00;101180.66;5003982;28;19920;-86
2023/09/11 00:29:52;;;;;;;;;;;;;;;14.56;100.00;101176.59;5006647;28;19913;-87
2023/09/11 00:32:17;;;;;;;;;;;;;;;14.56;100.00;101173.91;4999136;28;19939;-86
2023/09/11 00:34:43;;;;;;;;;;;;;;;14.38;100.00;101161.75;5023920;28;19917;-86
2023/09/11 00:37:08;;;;;;;;;;;;;;;14.39;100.00;101169.63;5004881;28;20283;-86
2023/09/11 00:39:33;;;;;;;;;;;;;;;14.41;100.00;101172.13;5015692;28;20030;-86
2023/09/11 00:41:58;;;;;;;;;;;;;;;14.49;100.00;101164.00;4979400;28;19925;-85
2023/09/11 00:44:24;;;;;;;;;;;;;;;14.43;100.00;101168.25;5023651;28;19920;-86
2023/09/11 00:46:50;;;;;;;;;;;;;;;14.40;100.00;101170.44;5015139;28;19909;-86
2023/09/11 00:49:15;;;;;;;;;;;;;;;14.43;100.00;101167.44;5031451;28;19960;-87
2023/09/11 00:51:40;;;;;;;;;;;;;;;14.59;100.00;101163.84;5007383;28;19913;-86
2023/09/11 00:54:06;;;;;;;;;;;;;;;14.68;100.00;101174.34;4998417;28;19944;-87
2023/09/11 00:56:31;;;;;;;;;;;;;;;14.70;100.00;101175.00;5015117;28;19913;-87
2023/09/11 00:58:57;;;;;;;;;;;;;;;14.77;100.00;101175.09;4998805;28;19920;-86
2023/09/11 01:01:23;;;;;;;;;;;;;;;14.84;100.00;101180.59;5015302;28;20425;-87
2023/09/11 01:03:49;;;;;;;;;;;;;;;14.95;100.00;101180.19;5000996;28;19963;-86
2023/09/11 01:06:14;;;;;;;;;;;;;;;14.90;100.00;101183.41;5012679;28;19909;-87
2023/09/11 01:08:40;;;;;;;;;;;;;;;14.96;100.00;101182.69;5031369;28;19920;-87
2023/09/11 01:11:06;;;;;;;;;;;;;;;14.93;100.00;101174.13;5010506;28;19939;-86
2023/09/11 01:13:32;;;;;;;;;;;;;;;14.98;100.00;101171.75;4998616;28;20386;-86
2023/09/11 01:15:57;;;;;;;;;;;;;;;15.09;100.00;101171.31;5006274;28;20483;-86
2023/09/11 01:18:28;;;;;;;;;;;;;;;15.03;100.00;101169.38;5029882;28;19913;-86
2023/09/11 01:21:10;;;;;;;;;;;;;;;15.20;100.00;101168.19;4998181;28;19948;-86
2023/09/11 01:23:36;;;;;;;;;;;;;;;15.20;100.00;101162.81;5031031;28;20371;-87
2023/09/11 01:26:11;;;;;;;;;;;;;;;15.36;100.00;101164.50;5014884;28;19952;-86
2023/09/11 01:28:48;;;;;;;;;;;;;;;15.47;100.00;101165.06;5031076;28;20390;-85
2023/09/11 01:31:16;;;;;;;;;;;;;;;15.30;100.00;101150.94;4977365;28;19965;-86
2023/09/11 01:33:41;;;;;;;;;;;;;;;15.27;100.00;101148.63;4998069;28;20391;-87
2023/09/11 01:36:06;;;;;;;;;;;;;;;15.28;100.00;101147.59;5014423;28;19939;-86
2023/09/11 01:38:32;;;;;;;;;;;;;;;15.23;100.00;101145.47;5003798;28;19913;-86
2023/09/11 01:40:58;;;;;;;;;;;;;;;15.44;100.00;101158.19;4984539;28;19963;-87
2023/09/11 01:43:25;;;;;;;;;;;;;;;15.38;100.00;101151.72;4989336;28;19910;-85
2023/09/11 01:45:50;;;;;;;;;;;;;;;15.20;100.00;101145.84;5008338;28;19921;-87
2023/09/11 01:48:16;;;;;;;;;;;;;;;15.28;100.00;101158.38;5010191;28;19913;-87
2023/09/11 01:50:42;;;;;;;;;;;;;;;15.35;100.00;101176.28;5027262;28;20443;-87
2023/09/11 01:53:07;;;;;;;;;;;;;;;15.33;100.00;101175.63;5010134;28;19913;-87
2023/09/11 01:55:33;;;;;;;;;;;;;;;15.22;100.00;101165.31;5030621;28;19913;-86
2023/09/11 01:57:58;;;;;;;;;;;;;;;15.34;100.00;101169.22;5005509;28;20603;-86
2023/09/11 02:00:23;;;;;;;;;;;;;;;15.39;100.00;101166.00;4990067;28;20011;-87
2023/09/11 02:02:52;;;;;;;;;;;;;;;15.46;100.00;101166.94;4997499;28;20001;-86
2023/09/11 02:05:18;;;;;;;;;;;;;;;15.54;100.00;101169.50;4997272;28;19959;-87
2023/09/11 02:07:43;;;;;;;;;;;;;;;15.42;100.00;101165.63;4997500;28;19971;-86
2023/09/11 02:10:09;;;;;;;;;;;;;;;15.43;100.00;101161.94;4992960;28;19917;-85
2023/09/11 02:12:34;;;;;;;;;;;;;;;15.38;100.00;101162.47;5029590;28;19913;-87
2023/09/11 02:14:59;;;;;;;;;;;;;;;15.29;100.00;101160.03;4990171;28;19921;-86
2023/09/11 02:17:25;;;;;;;;;;;;;;;15.37;100.00;101168.84;4991016;28;19916;-87
2023/09/11 02:19:53;;;;;;;;;;;;;;;15.38;100.00;101172.38;5003137;28;20016;-86
2023/09/11 02:22:18;;;;;;;;;;;;;;;15.34;100.00;101180.00;4995407;28;19909;-86
2023/09/11 02:24:43;;;;;;;;;;;;;;;15.28;100.00;101169.13;4992027;28;19928;-86
2023/09/11 02:27:09;;;;;;;;;;;;;;;15.43;100.00;101178.06;5010364;28;19916;-85
2023/09/11 02:29:34;;;;;;;;;;;;;;;15.50;100.00;101173.63;5009646;28;19913;-85
2023/09/11 02:32:00;;;;;;;;;;;;;;;15.57;100.00;101171.03;4988080;28;19945;-86
2023/09/11 02:34:26;;;;;;;;;;;;;;;15.48;100.00;101172.97;4997266;28;19923;-86
2023/09/11 02:36:51;;;;;;;;;;;;;;;15.51;100.00;101164.50;5013060;28;19913;-87
2023/09/11 02:39:16;;;;;;;;;;;;;;;15.63;100.00;101164.88;5029627;28;19939;-87
2023/09/11 02:41:41;;;;;;;;;;;;;;;15.51;100.00;101163.69;5008372;28;20334;-86
2023/09/11 02:44:07;;;;;;;;;;;;;;;15.59;100.00;101166.28;4996127;28;19959;-85
2023/09/11 02:46:32;;;;;;;;;;;;;;;15.58;100.00;101170.81;4993440;28;19913;-86
2023/09/11 02:48:57;;;;;;;;;;;;;;;15.49;100.00;101177.31;5008524;28;19916;-87
2023/09/11 02:51:23;;;;;;;;;;;;;;;15.50;100.00;101176.31;4983765;28;20355;-87
2023/09/11 02:53:48;;;;;;;;;;;;;;;15.50;100.00;101165.53;5025749;28;19967;-86
2023/09/11 02:56:13;;;;;;;;;;;;;;;15.53;100.00;101164.34;5009946;28;19909;-86
2023/09/11 02:58:38;;;;;;;;;;;;;;;15.63;100.00;101160.34;4988586;28;20329;-85
2023/09/11 03:01:04;;;;;;;;;;;;;;;15.53;100.00;101165.16;4996582;28;19920;-86
2023/09/11 03:03:32;;;;;;;;;;;;;;;15.47;100.00;101159.69;5018306;28;20333;-86
2023/09/11 03:05:58;;;;;;;;;;;;;;;15.41;100.00;101156.72;4996894;28;19960;-86
2023/09/11 03:08:24;;;;;;;;;;;;;;;15.39;100.00;101157.91;5028832;28;19913;-86
2023/09/11 03:10:49;;;;;;;;;;;;;;;15.37;100.00;101158.09;4991284;28;19913;-85
2023/09/11 03:13:15;;;;;;;;;;;;;;;15.49;100.00;101160.34;5008452;28;19951;-86
2023/09/11 03:15:42;;;;;;;;;;;;;;;15.36;100.00;101159.13;5005748;28;20011;-86
2023/09/11 03:18:08;;;;;;;;;;;;;;;15.41;100.00;101164.78;4993100;28;19920;-85
2023/09/11 03:20:33;;;;;;;;;;;;;;;15.40;100.00;101163.13;5025914;28;19913;-86
2023/09/11 03:22:59;;;;;;;;;;;;;;;15.46;100.00;101161.53;5025357;28;19914;-85
2023/09/11 03:25:26;;;;;;;;;;;;;;;15.27;100.00;101149.47;5019563;28;19909;-85
2023/09/11 03:27:51;;;;;;;;;;;;;;;15.36;100.00;101151.06;5028540;28;20282;-85
2023/09/11 03:30:16;;;;;;;;;;;;;;;15.39;100.00;101152.53;4996026;28;19996;-86
2023/09/11 03:32:42;;;;;;;;;;;;;;;15.39;100.00;101149.84;4991401;28;20306;-86
2023/09/11 03:35:07;;;;;;;;;;;;;;;15.35;100.00;101148.53;4992842;28;19918;-86
2023/09/11 03:37:33;;;;;;;;;;;;;;;15.46;100.00;101147.25;4992406;28;19909;-85
2023/09/11 03:39:59;;;;;;;;;;;;;;;15.46;100.00;101144.56;5017389;28;19935;-86
2023/09/11 03:42:24;;;;;;;;;;;;;;;15.41;100.00;101142.44;5006118;28;19913;-86
2023/09/11 03:44:50;;;;;;;;;;;;;;;15.36;100.00;101140.31;5006415;28;20357;-86
2023/09/11 03:47:15;;;;;;;;;;;;;;;15.50;100.00;101141.31;4994689;28;20414;-86
2023/09/11 03:49:40;;;;;;;;;;;;;;;15.44;100.00;101136.69;4995928;28;20466;-87
2023/09/11 03:52:05;;;;;;;;;;;;;;;15.54;100.00;101134.53;4993126;28;19918;-86
2023/09/11 03:54:31;;;;;;;;;;;;;;;15.46;100.00;101131.94;5011368;28;19917;-86
2023/09/11 03:56:56;;;;;;;;;;;;;;;15.49;100.00;101122.66;4995372;28;19913;-86
2023/09/11 03:59:21;;;;;;;;;;;;;;;15.39;100.00;101129.16;4993725;28;19916;-86
2023/09/11 04:01:47;;;;;;;;;;;;;;;15.38;100.00;101126.63;5008809;28;19956;-86
2023/09/11 04:04:12;;;;;;;;;;;;;;;15.28;100.00;101128.78;5008197;28;19913;-85
2023/09/11 04:06:37;;;;;;;;;;;;;;;15.28;100.00;101126.91;5004260;28;20386;-86
2023/09/11 04:09:03;;;;;;;;;;;;;;;15.22;100.00;101122.28;4988613;28;19957;-87
2023/09/11 04:11:29;;;;;;;;;;;;;;;15.26;100.00;101120.88;5011284;28;20426;-86
2023/09/11 04:13:54;;;;;;;;;;;;;;;15.41;100.00;101126.28;4990240;28;20352;-86
2023/09/11 04:16:21;;;;;;;;;;;;;;;15.35;100.00;101135.91;5023633;28;19968;-86
2023/09/11 04:18:46;;;;;;;;;;;;;;;15.35;100.00;101135.91;4984121;28;19964;-86
2023/09/11 04:21:12;;;;;;;;;;;;;;;15.20;100.00;101125.16;4997471;28;19917;-87
2023/09/11 04:23:37;;;;;;;;;;;;;;;15.17;100.00;101120.16;4995463;28;19912;-86
2023/09/11 04:26:03;;;;;;;;;;;;;;;15.16;100.00;101131.09;4987960;28;20017;-86
2023/09/11 04:28:29;;;;;;;;;;;;;;;15.23;100.00;101139.25;4995136;28;19999;-86
2023/09/11 04:30:54;;;;;;;;;;;;;;;15.14;100.00;101128.56;4995721;28;19944;-85
2023/09/11 04:33:20;;;;;;;;;;;;;;;15.12;100.00;101133.28;4995309;28;19932;-86
2023/09/11 04:35:45;;;;;;;;;;;;;;;15.27;100.00;101132.50;5028305;28;19913;-86
2023/09/11 04:38:11;;;;;;;;;;;;;;;15.25;100.00;101127.28;4984750;28;19956;-85
2023/09/11 04:40:37;;;;;;;;;;;;;;;15.14;100.00;101125.88;4982238;28;20290;-86
2023/09/11 04:43:02;;;;;;;;;;;;;;;14.98;100.00;101120.66;4995523;28;19909;-87
2023/09/11 04:45:27;;;;;;;;;;;;;;;15.09;100.00;101122.91;4995287;28;20003;-87
2023/09/11 04:47:56;;;;;;;;;;;;;;;14.91;100.00;101131.31;5005019;28;20012;-86
2023/09/11 04:50:21;;;;;;;;;;;;;;;14.95;100.00;101129.09;5006863;28;19913;-87
2023/09/11 04:52:46;;;;;;;;;;;;;;;14.85;100.00;101134.72;5001676;28;19920;-86
2023/09/11 04:55:12;;;;;;;;;;;;;;;14.82;100.00;101128.88;5007630;28;19913;-85
2023/09/11 04:57:37;;;;;;;;;;;;;;;14.98;100.00;101144.84;5015125;28;19913;-86
2023/09/11 05:00:09;;;;;;;;;;;;;;;15.05;100.00;101148.47;4999245;28;19913;-86
2023/09/11 05:02:35;;;;;;;;;;;;;;;15.09;100.00;101140.91;5031230;28;19920;-86
2023/09/11 05:05:00;;;;;;;;;;;;;;;15.16;100.00;101152.59;4995642;28;20315;-86
2023/09/11 05:07:26;;;;;;;;;;;;;;;15.19;100.00;101154.91;4998050;28;19917;-87
2023/09/11 05:09:51;;;;;;;;;;;;;;;15.22;100.00;101148.31;5017328;28;20391;-86
2023/09/11 05:12:16;;;;;;;;;;;;;;;15.12;100.00;101146.72;5017786;28;19913;-86
2023/09/11 05:14:42;;;;;;;;;;;;;;;15.23;100.00;101147.31;4994995;28;19917;-85
2023/09/11 05:17:07;;;;;;;;;;;;;;;15.34;100.00;101154.94;5023744;22;19909;-75
2023/09/11 05:19:32;;;;;;;;;;;;;;;15.23;100.00;101147.31;5006795;28;20863;-75
2023/09/11 05:21:58;;;;;;;;;;;;;;;15.38;100.00;101146.34;5007284;28;20024;-76
2023/09/11 05:24:23;;;;;;;;;;;;;;;15.37;100.00;101152.72;4998810;28;20384;-75
2023/09/11 05:26:49;;;;;;;;;;;;;;;15.31;100.00;101148.09;5002157;28;19916;-75
2023/09/11 05:29:14;;;;;;;;;;;;;;;15.44;100.00;101157.38;5007217;28;19913;-76
2023/09/11 05:31:39;;;;;;;;;;;;;;;15.45;100.00;101154.47;5003308;28;19913;-75
2023/09/11 05:34:04;;;;;;;;;;;;;;;15.53;100.00;101157.09;5008217;28;20007;-75
2023/09/11 05:36:30;;;;;;;;;;;;;;;15.47;100.00;101160.50;5008246;28;19913;-76
2023/09/11 05:38:55;;;;;;;;;;;;;;;15.44;100.00;101147.44;5008582;28;20280;-76
2023/09/11 05:41:20;;;;;;;;;;;;;;;15.44;100.00;101147.44;5008025;28;19956;-76
2023/09/11 05:43:45;;;;;;;;;;;;;;;15.38;100.00;101140.09;5008073;28;19913;-76
2023/09/11 05:46:11;;;;;;;;;;;;;;;15.34;100.00;101131.56;5006995;28;20016;-75
2023/09/11 05:48:36;;;;;;;;;;;;;;;15.17;100.00;101121.97;5006412;28;20307;-75
2023/09/11 05:51:02;;;;;;;;;;;;;;;15.30;100.00;101127.56;5007152;28;19914;-76
2023/09/11 05:53:27;;;;;;;;;;;;;;;15.24;100.00;101124.78;5007842;28;19944;-75
2023/09/11 05:55:53;;;;;;;;;;;;;;;15.22;100.00;101127.66;5005436;28;20024;-75
2023/09/11 05:58:19;;;;;;;;;;;;;;;15.37;100.00;101131.19;4996927;28;19917;-76
2023/09/11 06:00:44;;;;;;;;;;;;;;;15.15;100.00;101129.44;5008180;28;19913;-75
2023/09/11 06:03:09;;;;;;;;;;;;;;;15.12;100.00;101132.47;4999851;28;19917;-75
2023/09/11 06:05:39;;;;;;;;;;;;;;;15.28;100.00;101131.47;5007613;28;19936;-76
2023/09/11 06:08:05;;;;;;;;;;;;;;;15.28;100.00;101136.84;5007475;28;19913;-75
2023/09/11 06:10:30;;;;;;;;;;;;;;;15.42;100.00;101144.09;5007756;28;19960;-76
2023/09/11 06:12:56;;;;;;;;;;;;;;;15.39;100.00;101128.31;5001887;28;19913;-76
2023/09/11 06:15:21;;;;;;;;;;;;;;;15.47;100.00;101130.91;4997372;28;20308;-76
2023/09/11 06:17:46;;;;;;;;;;;;;;;15.43;100.00;101129.63;5007468;28;19917;-76
2023/09/11 06:20:13;;;;;;;;;;;;;;;15.13;100.00;101116.16;5007740;28;20352;-75
2023/09/11 06:22:39;;;;;;;;;;;;;;;15.35;100.00;101117.09;5007649;28;20380;-75
2023/09/11 06:25:04;;;;;;;;;;;;;;;15.42;100.00;101122.56;5006236;28;19913;-75
2023/09/11 06:27:30;;;;;;;;;;;;;;;15.33;100.00;101127.19;5007244;28;20376;-76
2023/09/11 06:29:55;;;;;;;;;;;;;;;14.97;100.00;101114.44;5006480;28;20027;-76
2023/09/11 06:32:20;;;;;;;;;;;;;;;15.14;100.00;101120.50;4999272;28;19917;-76
2023/09/11 06:34:45;;;;;;;;;;;;;;;15.35;100.00;101132.41;5001710;28;19940;-76
2023/09/11 06:37:11;;;;;;;;;;;;;;;15.36;100.00;101117.94;5007196;28;19920;-77
2023/09/11 06:39:36;;;;;;;;;;;;;;;15.21;100.00;101115.22;5007194;28;19966;-75
2023/09/11 06:42:01;;;;;;;;;;;;;;;15.20;100.00;101111.72;5001864;28;20291;-76
2023/09/11 06:44:26;;;;;;;;;;;;;;;15.36;100.00;101099.13;5007019;28;19909;-76
2023/09/11 06:46:52;;;;;;;;;;;;;;;15.40;100.00;101103.09;5007119;28;20725;-76
2023/09/11 06:49:17;;;;;;;;;;;;;;;15.53;100.00;101099.75;5006919;28;19910;-77
2023/09/11 06:51:42;;;;;;;;;;;;;;;15.63;100.00;101092.22;5007152;28;20339;-75
2023/09/11 06:54:09;;;;;;;;;;;;;;;15.58;100.00;101090.09;5006995;28;19917;-76
2023/09/11 06:56:35;;;;;;;;;;;;;;;15.56;100.00;101070.59;5006854;28;20079;-76
2023/09/11 06:59:00;;;;;;;;;;;;;;;15.82;100.00;101080.06;4998947;28;19996;-74
2023/09/11 07:01:28;;;;;;;;;;;;;;;15.97;100.00;101080.88;4998847;28;19921;-76
2023/09/11 07:03:53;;;;;;;;;;;;;;;15.56;100.00;101067.09;5000387;28;19968;-75
2023/09/11 07:06:19;;;;;;;;;;;;;;;15.81;100.00;101065.78;4995733;28;19944;-76
2023/09/11 07:08:44;;;;;;;;;;;;;;;16.06;100.00;101060.06;5006630;28;19913;-76
2023/09/11 07:11:09;;;;;;;;;;;;;;;16.17;100.00;101064.09;5006162;28;19920;-76
2023/09/11 07:13:34;;;;;;;;;;;;;;;16.00;100.00;101048.16;4998195;28;19921;-76
2023/09/11 07:16:00;;;;;;;;;;;;;;;16.34;100.00;101046.66;5006692;28;20006;-76
2023/09/11 07:18:26;;;;;;;;;;;;;;;16.10;100.00;101038.94;4996080;28;20395;-74
2023/09/11 07:20:52;;;;;;;;;;;;;;;16.18;100.00;101039.66;4984393;28;19935;-75
2023/09/11 07:23:21;;;;;;;;;;;;;;;16.41;100.00;101022.44;4984649;28;19910;-76
2023/09/11 07:25:46;;;;;;;;;;;;;;;16.21;100.00;101006.94;4984668;28;19968;-76
2023/09/11 07:28:15;;;;;;;;;;;;;;;16.74;100.00;101008.38;4984982;28;20398;-75
2023/09/11 07:30:40;;;;;;;;;;;;;;;16.59;100.00;100995.03;4983971;28;20415;-75
2023/09/11 07:33:05;;;;;;;;;;;;;;;16.81;100.00;100987.72;4984754;28;19917;-75
2023/09/11 07:35:31;;;;;;;;;;;;;;;16.61;100.00;100974.09;4983898;28;19917;-75
2023/09/11 07:37:56;;;;;;;;;;;;;;;16.73;100.00;100974.38;4984738;28;20431;-75
2023/09/11 07:40:21;;;;;;;;;;;;;;;16.73;100.00;100975.22;4984469;28;19921;-76
2023/09/11 07:42:46;;;;;;;;;;;;;;;16.96;100.00;100963.34;4984259;28;20012;-75
2023/09/11 07:45:12;;;;;;;;;;;;;;;17.03;100.00;100958.84;4977034;28;20186;-74
2023/09/11 07:47:37;;;;;;;;;;;;;;;17.12;100.00;100954.94;4977377;28;20008;-75
2023/09/11 07:50:03;;;;;;;;;;;;;;;17.55;100.00;100956.53;4984835;28;19948;-74
2023/09/11 07:52:28;;;;;;;;;;;;;;;17.39;100.00;100931.56;4983544;28;19929;-74
2023/09/11 07:54:53;;;;;;;;;;;;;;;17.75;100.00;100941.22;4984246;28;19924;-75
2023/09/11 07:57:19;;;;;;;;;;;;;;;17.59;100.00;100937.03;4985559;28;19917;-75
2023/09/11 07:59:44;;;;;;;;;;;;;;;17.71;100.00;100938.09;4984651;28;19913;-75
2023/09/11 08:02:09;;;;;;;;;;;;;;;17.48;100.00;100946.53;4985288;28;19917;-75
2023/09/11 08:04:35;;;;;;;;;;;;;;;18.04;100.00;100944.63;4985336;28;19917;-75
2023/09/11 08:07:01;;;;;;;;;;;;;;;18.30;100.00;100941.06;4986325;28;19996;-75
2023/09/11 08:09:26;;;;;;;;;;;;;;;18.13;100.00;100938.78;4986287;28;20471;-76
2023/09/11 08:11:52;;;;;;;;;;;;;;;18.45;100.00;100944.41;4986720;28;19950;-75
2023/09/11 08:14:17;;;;;;;;;;;;;;;18.67;100.00;100947.69;4986148;28;19925;-75
2023/09/11 08:16:42;;;;;;;;;;;;;;;18.19;100.00;100936.28;4994574;28;19959;-75
2023/09/11 08:19:08;;;;;;;;;;;;;;;19.53;100.00;100953.88;4985196;28;19976;-75
2023/09/11 08:21:33;;;;;;;;;;;;;;;19.87;100.00;100922.84;4984359;28;20376;-75
2023/09/11 08:23:58;;;;;;;;;;;;;;;19.65;100.00;100922.34;4984129;28;20312;-75
2023/09/11 08:26:24;;;;;;;;;;;;;;;19.33;100.00;100925.00;4982124;28;19910;-75
2023/09/11 08:28:49;;;;;;;;;;;;;;;19.11;100.00;100929.09;4984061;28;20262;-75
2023/09/11 08:31:14;;;;;;;;;;;;;;;19.95;100.00;100928.00;4987638;28;20021;-75
2023/09/11 08:33:39;;;;;;;;;;;;;;;19.75;100.00;100898.34;4987242;28;19925;-75
2023/09/11 08:36:05;;;;;;;;;;;;;;;20.78;100.00;100907.00;4988067;28;19918;-76
2023/09/11 08:38:30;;;;;;;;;;;;;;;21.20;100.00;100845.50;4986713;28;19936;-75
2023/09/11 08:40:55;;;;;;;;;;;;;;;21.42;100.00;100824.13;4988717;28;19917;-76
2023/09/11 08:43:24;;;;;;;;;;;;;;;22.37;100.00;100777.97;4988388;28;19925;-75
2023/09/11 08:45:50;;;;;;;;;;;;;;;22.42;100.00;100661.13;4987721;28;19961;-76
2023/09/11 08:48:16;;;;;;;;;;;;;;;22.45;100.00;100596.19;4988807;28;19960;-76
2023/09/11 08:50:43;;;;;;;;;;;;;;;21.90;100.00;100490.75;4989732;28;20060;-75
2023/09/11 08:53:09;;;;;;;;;;;;;;;21.31;100.00;100591.38;4987522;28;21820;-74
2023/09/11 08:55:34;;;;;;;;;;;;;;;22.27;100.00;100640.72;4988482;28;19953;-76
2023/09/11 08:58:02;;;;;;;;;;;;;;;23.01;100.00;100505.66;4987067;28;19909;-76
2023/09/11 09:00:28;;;;;;;;;;;;;;;23.24;100.00;100294.91;4989687;28;20009;-76
2023/09/11 09:02:53;;;;;;;;;;;;;;;21.87;100.00;100165.16;4990325;28;20278;-73
2023/09/11 09:05:20;;;;;;;;;;;;;;;22.42;100.00;100514.25;4989642;28;20400;-74
2023/09/11 09:07:46;;;;;;;;;;;;;;;22.72;100.00;100280.72;4981546;28;19917;-75
2023/09/11 09:10:11;;;;;;;;;;;;;;;23.50;100.00;100307.66;4989768;28;20492;-75
2023/09/11 09:12:38;;;;;;;;;;;;;;;22.84;100.00;100051.16;4987976;28;20012;-75
2023/09/11 09:15:03;;;;;;;;;;;;;;;23.59;100.00;100199.03;4991419;28;19921;-74
2023/09/11 09:17:29;;;;;;;;;;;;;;;24.70;100.00;100108.97;4987856;28;19926;-75
2023/09/11 09:19:54;;;;;;;;;;;;;;;24.37;100.00;100026.53;4988397;28;20262;-76
2023/09/11 09:22:19;;;;;;;;;;;;;;;24.22;100.00;100099.06;4989984;28;20376;-74
2023/09/11 09:25:02;;;;;;;;;;;;;;;24.57;100.00;99905.69;4989332;28;19920;-75
2023/09/11 09:27:35;;;;;;;;;;;;;;;24.09;100.00;99872.44;4988991;28;19963;-74
2023/09/11 09:30:00;;;;;;;;;;;;;;;23.65;100.00;99785.72;4989045;28;19913;-75
2023/09/11 09:32:31;;;;;;;;;;;;;;;23.73;100.00;99804.28;4990599;28;19981;-76
2023/09/11 09:34:57;;;;;;;;;;;;;;;22.59;100.00;100074.34;4989005;28;19940;-75
2023/09/11 09:37:22;;;;;;;;;;;;;;;23.59;100.00;100000.97;4986462;28;20793;-76
2023/09/11 09:39:48;;;;;;;;;;;;;;;24.14;100.00;100123.28;4985955;28;20401;-75
2023/09/11 09:42:14;;;;;;;;;;;;;;;23.46;100.00;100093.25;4985869;28;19913;-75
2023/09/11 09:44:40;;;;;;;;;;;;;;;24.63;100.00;100128.34;4985429;28;20269;-75
2023/09/11 09:47:10;;;;;;;;;;;;;;;25.70;100.00;99939.69;4986001;28;19910;-75
2023/09/11 09:49:54;;;;;;;;;;;;;;;26.42;100.00;99681.16;4983751;28;20098;-76
2023/09/11 09:52:21;;;;;;;;;;;;;;;25.51;100.00;99414.06;4987715;28;20292;-75
2023/09/11 09:54:47;;;;;;;;;;;;;;;26.30;100.00;99717.94;4986055;28;19917;-76
2023/09/11 09:57:13;;;;;;;;;;;;;;;24.65;100.00;99506.72;4986754;28;20470;-76
2023/09/11 09:59:39;;;;;;;;;;;;;;;25.59;100.00;99740.50;4986535;28;19914;-74
2023/09/11 10:02:07;;;;;;;;;;;;;;;25.36;100.00;99639.09;4985851;28;19914;-75
2023/09/11 10:04:33;;;;;;;;;;;;;;;26.36;100.00;99753.44;4984471;28;19917;-76
2023/09/11 10:06:59;;;;;;;;;;;;;;;26.10;100.00;99431.00;4981805;28;20373;-74
2023/09/11 10:09:24;;;;;;;;;;;;;;;26.64;100.00;99568.38;4984047;28;19936;-75
2023/09/11 10:11:50;;;;;;;;;;;;;;;25.56;100.00;99444.06;4988261;28;20389;-75
2023/09/11 10:14:17;;;;;;;;;;;;;;;25.14;100.00;99428.44;4988265;28;20312;-76
2023/09/11 10:16:42;;;;;;;;;;;;;;;25.50;100.00;99732.13;4989619;28;19913;-75
2023/09/11 10:19:08;;;;;;;;;;;;;;;26.35;100.00;99782.72;4988016;28;19985;-73
2023/09/11 10:21:34;;;;;;;;;;;;;;;27.11;100.00;99545.41;4996204;28;19940;-74
2023/09/11 10:23:59;;;;;;;;;;;;;;;27.42;100.00;99442.63;4987967;28;20000;-76
2023/09/11 10:26:40;;;;;;;;;;;;;;;27.14;100.00;99417.97;4986679;28;20036;-75
2023/09/11 10:29:10;;;;;;;;;;;;;;;27.55;100.00;99434.38;4996392;28;20377;-76
2023/09/11 10:31:39;;;;;;;;;;;;;;;27.46;100.00;99468.31;4987869;28;20482;-75
2023/09/11 10:34:05;;;;;;;;;;;;;;;28.73;93.19;99296.25;4987643;28;19964;-76
2023/09/11 10:36:34;;;;;;;;;;;;;;;28.88;89.46;99080.78;4986443;28;19917;-76
2023/09/11 10:39:02;;;;;;;;;;;;;;;29.67;85.42;98975.03;4981642;28;19914;-75
2023/09/11 10:41:28;;;;;;;;;;;;;;;28.99;83.02;98712.06;4986620;28;19914;-76
2023/09/11 10:43:53;;;;;;;;;;;;;;;28.94;84.40;98928.41;4987473;28;20013;-74
2023/09/11 10:46:21;;;;;;;;;;;;;;;27.83;84.22;98712.41;4988014;28;19924;-76
2023/09/11 10:48:47;;;;;;;;;;;;;;;27.34;88.47;99030.44;4986247;28;19916;-75
2023/09/11 10:51:13;;;;;;;;;;;;;;;28.68;86.75;99192.06;5000942;28;19913;-76
2023/09/11 10:53:39;;;;;;;;;;;;;;;29.11;85.62;99236.09;4988042;28;19914;-76
2023/09/11 10:56:04;;;;;;;;;;;;;;;29.50;81.88;99028.13;4987799;28;19914;-76
2023/09/11 10:58:30;;;;;;;;;;;;;;;29.83;78.60;98816.53;4984530;28;19909;-77
2023/09/11 11:00:56;;;;;;;;;;;;;;;30.46;78.29;99011.03;4988146;28;19913;-77
2023/09/11 11:03:24;;;;;;;;;;;;;;;30.36;74.43;98601.31;4988112;28;19910;-76
2023/09/11 11:05:49;;;;;;;;;;;;;;;29.78;74.93;98607.75;4980594;28;19917;-76
2023/09/11 11:08:15;;;;;;;;;;;;;;;29.83;74.67;98595.72;4993683;28;20273;-75
2023/09/11 11:10:40;;;;;;;;;;;;;;;27.76;76.42;98327.16;4987337;28;19968;-76
2023/09/11 11:13:07;;;;;;;;;;;;;;;29.05;77.02;98784.06;4987841;28;19973;-76
2023/09/11 11:15:32;;;;;;;;;;;;;;;28.01;74.62;98212.16;4988765;28;19967;-75
2023/09/11 11:18:08;;;;;;;;;;;;;;;27.94;75.43;98406.59;4985547;28;19932;-76
2023/09/11 11:20:34;;;;;;;;;;;;;;;29.26;74.57;98704.44;4987057;28;19925;-76
2023/09/11 11:23:09;;;;;;;;;;;;;;;28.19;74.75;98410.25;4986971;28;19913;-76
2023/09/11 11:25:35;;;;;;;;;;;;;;;28.43;73.69;98387.59;4990323;28;19913;-77
2023/09/11 11:28:07;;;;;;;;;;;;;;;27.95;75.81;98572.69;4993520;28;19972;-76
2023/09/11 11:30:34;;;;;;;;;;;;;;;29.13;73.70;98661.59;4995305;28;19964;-76
2023/09/11 11:32:59;;;;;;;;;;;;;;;29.45;71.99;98550.84;4980802;28;19913;-77
2023/09/11 11:35:24;;;;;;;;;;;;;;;30.19;71.77;98743.47;4987320;28;19914;-76
2023/09/11 11:37:52;;;;;;;;;;;;;;;30.05;68.19;98242.31;4988009;28;19913;-76
2023/09/11 11:40:18;;;;;;;;;;;;;;;29.42;68.83;98213.47;4986960;28;19921;-76
2023/09/11 11:42:44;;;;;;;;;;;;;;;30.15;67.45;98365.59;4994507;28;19921;-77
2023/09/11 11:45:09;;;;;;;;;;;;;;;31.48;65.97;98524.22;4993242;28;19917;-77
2023/09/11 11:47:36;;;;;;;;;;;;;;;31.38;61.75;97951.38;4988047;28;20304;-76
2023/09/11 11:50:11;;;;;;;;;;;;;;;31.72;61.75;98076.41;4986774;28;19914;-77
2023/09/11 11:52:36;;;;;;;;;;;;;;;30.41;60.72;97602.00;4986558;28;20364;-76
2023/09/11 11:55:02;;;;;;;;;;;;;;;31.09;62.36;98163.03;4986675;28;19921;-77
2023/09/11 11:57:27;;;;;;;;;;;;;;;31.60;63.33;98412.22;4986467;28;19940;-77
2023/09/11 11:59:52;;;;;;;;;;;;;;;31.37;65.71;98605.81;4985355;28;19924;-77
2023/09/11 12:02:21;;;;;;;;;;;;;;;32.35;64.53;98754.22;4986844;28;19918;-77
2023/09/11 12:04:47;;;;;;;;;;;;;;;32.55;62.75;98473.44;4986797;28;19944;-78
2023/09/11 12:07:12;;;;;;;;;;;;;;;33.13;60.25;98378.59;4985417;28;19920;-76
2023/09/11 12:09:40;;;;;;;;;;;;;;;33.34;58.19;98121.00;4994340;28;19917;-77
2023/09/11 12:12:06;;;;;;;;;;;;;;;32.78;59.93;98188.97;4981900;28;19920;-77
2023/09/11 12:14:31;;;;;;;;;;;;;;;32.54;58.31;97949.13;4985775;28;19913;-77
2023/09/11 12:16:57;;;;;;;;;;;;;;;32.54;58.53;98001.59;4986753;28;19934;-77
2023/09/11 12:19:23;;;;;;;;;;;;;;;32.52;57.79;97918.34;4986857;28;19909;-77
2023/09/11 12:21:49;;;;;;;;;;;;;;;31.68;57.05;97506.72;4986604;28;19967;-78
2023/09/11 12:24:14;;;;;;;;;;;;;;;31.39;58.07;97658.03;4987541;28;19914;-77